sensor_id;sensor_type;location;lat;lon;timestamp;temperature;humidity
12704;DHT22;6416;52.182;7.650;2023-08-07T00:01:29;19.00;83.10
12704;DHT22;6416;52.182;7.650;2023-08-07T00:03:55;19.10;83.30
12704;DHT22;6416;52.182;7.650;2023-08-07T00:06:20;19.10;83.30
12704;DHT22;6416;52.182;7.650;2023-08-07T00:08:46;19.00;83.30
12704;DHT22;6416;52.182;7.650;2023-08-07T00:11:11;19.00;83.30
12704;DHT22;6416;52.182;7.650;2023-08-07T00:13:37;19.00;83.40
12704;DHT22;6416;52.182;7.650;2023-08-07T00:16:02;19.00;83.50
12704;DHT22;6416;52.182;7.650;2023-08-07T00:18:29;19.00;83.60
12704;DHT22;6416;52.182;7.650;2023-08-07T00:20:54;19.00;83.70
12704;DHT22;6416;52.182;7.650;2023-08-07T00:23:20;19.00;83.80
12704;DHT22;6416;52.182;7.650;2023-08-07T00:25:46;19.00;83.90
12704;DHT22;6416;52.182;7.650;2023-08-07T00:28:11;19.00;83.90
12704;DHT22;6416;52.182;7.650;2023-08-07T00:30:37;19.00;83.90
12704;DHT22;6416;52.182;7.650;2023-08-07T00:33:02;19.00;83.90
12704;DHT22;6416;52.182;7.650;2023-08-07T00:35:28;19.00;83.90
12704;DHT22;6416;52.182;7.650;2023-08-07T00:37:53;18.90;84.00
12704;DHT22;6416;52.182;7.650;2023-08-07T00:40:19;19.00;84.10
12704;DHT22;6416;52.182;7.650;2023-08-07T00:42:44;19.00;84.10
12704;DHT22;6416;52.182;7.650;2023-08-07T00:45:10;18.90;84.10
12704;DHT22;6416;52.182;7.650;2023-08-07T00:47:35;18.90;84.20
12704;DHT22;6416;52.182;7.650;2023-08-07T00:50:02;18.90;84.30
12704;DHT22;6416;52.182;7.650;2023-08-07T00:52:28;18.90;84.40
12704;DHT22;6416;52.182;7.650;2023-08-07T00:54:53;18.90;84.40
12704;DHT22;6416;52.182;7.650;2023-08-07T00:57:19;18.90;85.20
12704;DHT22;6416;52.182;7.650;2023-08-07T00:59:44;18.90;84.60
12704;DHT22;6416;52.182;7.650;2023-08-07T01:02:10;18.90;84.70
12704;DHT22;6416;52.182;7.650;2023-08-07T01:04:37;18.90;84.70
12704;DHT22;6416;52.182;7.650;2023-08-07T01:07:03;18.90;84.90
12704;DHT22;6416;52.182;7.650;2023-08-07T01:09:28;18.90;85.00
12704;DHT22;6416;52.182;7.650;2023-08-07T01:12:25;18.90;85.10
12704;DHT22;6416;52.182;7.650;2023-08-07T01:15:02;18.90;85.10
12704;DHT22;6416;52.182;7.650;2023-08-07T01:17:29;18.90;85.00
12704;DHT22;6416;52.182;7.650;2023-08-07T01:19:55;18.90;85.10
12704;DHT22;6416;52.182;7.650;2023-08-07T01:22:22;18.90;85.20
12704;DHT22;6416;52.182;7.650;2023-08-07T01:24:49;18.90;85.40
12704;DHT22;6416;52.182;7.650;2023-08-07T01:32:16;18.80;85.60
12704;DHT22;6416;52.182;7.650;2023-08-07T01:34:42;18.90;85.80
12704;DHT22;6416;52.182;7.650;2023-08-07T01:37:10;18.90;85.90
12704;DHT22;6416;52.182;7.650;2023-08-07T01:39:37;18.90;86.00
12704;DHT22;6416;52.182;7.650;2023-08-07T01:42:03;18.90;86.00
12704;DHT22;6416;52.182;7.650;2023-08-07T01:44:29;18.90;86.10
12704;DHT22;6416;52.182;7.650;2023-08-07T01:46:55;18.90;86.20
12704;DHT22;6416;52.182;7.650;2023-08-07T01:49:20;18.90;86.20
12704;DHT22;6416;52.182;7.650;2023-08-07T01:51:46;18.80;86.20
12704;DHT22;6416;52.182;7.650;2023-08-07T01:54:11;18.90;86.40
12704;DHT22;6416;52.182;7.650;2023-08-07T01:56:36;18.80;86.50
12704;DHT22;6416;52.182;7.650;2023-08-07T01:59:02;18.90;86.60
12704;DHT22;6416;52.182;7.650;2023-08-07T02:01:27;18.90;86.60
12704;DHT22;6416;52.182;7.650;2023-08-07T02:03:53;18.80;86.60
12704;DHT22;6416;52.182;7.650;2023-08-07T02:06:18;18.80;86.60
12704;DHT22;6416;52.182;7.650;2023-08-07T02:08:44;18.80;86.60
12704;DHT22;6416;52.182;7.650;2023-08-07T02:11:09;18.80;86.70
12704;DHT22;6416;52.182;7.650;2023-08-07T02:13:35;18.80;86.70
12704;DHT22;6416;52.182;7.650;2023-08-07T02:16:00;18.80;86.70
12704;DHT22;6416;52.182;7.650;2023-08-07T02:18:26;18.80;86.80
12704;DHT22;6416;52.182;7.650;2023-08-07T02:20:51;18.80;86.90
12704;DHT22;6416;52.182;7.650;2023-08-07T02:23:17;18.80;86.90
12704;DHT22;6416;52.182;7.650;2023-08-07T02:25:42;18.80;87.00
12704;DHT22;6416;52.182;7.650;2023-08-07T02:28:07;18.80;87.10
12704;DHT22;6416;52.182;7.650;2023-08-07T02:30:33;18.70;87.00
12704;DHT22;6416;52.182;7.650;2023-08-07T02:32:58;18.80;87.10
12704;DHT22;6416;52.182;7.650;2023-08-07T02:35:24;18.70;87.00
12704;DHT22;6416;52.182;7.650;2023-08-07T02:37:49;18.70;87.10
12704;DHT22;6416;52.182;7.650;2023-08-07T02:40:15;18.70;87.30
12704;DHT22;6416;52.182;7.650;2023-08-07T02:42:41;18.70;87.30
12704;DHT22;6416;52.182;7.650;2023-08-07T02:45:07;18.70;87.50
12704;DHT22;6416;52.182;7.650;2023-08-07T02:47:32;18.70;87.50
12704;DHT22;6416;52.182;7.650;2023-08-07T02:49:58;18.80;87.60
12704;DHT22;6416;52.182;7.650;2023-08-07T02:52:23;18.70;87.50
12704;DHT22;6416;52.182;7.650;2023-08-07T02:54:49;18.70;87.60
12704;DHT22;6416;52.182;7.650;2023-08-07T02:57:14;18.70;87.70
12704;DHT22;6416;52.182;7.650;2023-08-07T02:59:39;18.70;87.80
12704;DHT22;6416;52.182;7.650;2023-08-07T03:02:05;18.70;87.90
12704;DHT22;6416;52.182;7.650;2023-08-07T03:04:31;18.70;88.00
12704;DHT22;6416;52.182;7.650;2023-08-07T03:06:56;18.70;88.00
12704;DHT22;6416;52.182;7.650;2023-08-07T03:09:22;18.70;88.10
12704;DHT22;6416;52.182;7.650;2023-08-07T03:11:47;18.70;88.10
12704;DHT22;6416;52.182;7.650;2023-08-07T03:14:12;18.70;88.20
12704;DHT22;6416;52.182;7.650;2023-08-07T03:16:38;18.70;88.40
12704;DHT22;6416;52.182;7.650;2023-08-07T03:19:03;18.70;88.40
12704;DHT22;6416;52.182;7.650;2023-08-07T03:21:29;18.70;88.50
12704;DHT22;6416;52.182;7.650;2023-08-07T03:23:54;18.70;88.50
12704;DHT22;6416;52.182;7.650;2023-08-07T03:26:20;18.70;88.70
12704;DHT22;6416;52.182;7.650;2023-08-07T03:28:45;18.70;88.60
12704;DHT22;6416;52.182;7.650;2023-08-07T03:31:11;18.70;88.70
12704;DHT22;6416;52.182;7.650;2023-08-07T03:33:36;18.70;88.70
12704;DHT22;6416;52.182;7.650;2023-08-07T03:36:02;18.70;88.80
12704;DHT22;6416;52.182;7.650;2023-08-07T03:38:27;18.70;88.90
12704;DHT22;6416;52.182;7.650;2023-08-07T03:40:53;18.70;89.00
12704;DHT22;6416;52.182;7.650;2023-08-07T03:43:18;18.70;89.10
12704;DHT22;6416;52.182;7.650;2023-08-07T03:45:44;18.70;89.10
12704;DHT22;6416;52.182;7.650;2023-08-07T03:48:09;18.70;89.10
12704;DHT22;6416;52.182;7.650;2023-08-07T03:50:35;18.80;89.10
12704;DHT22;6416;52.182;7.650;2023-08-07T03:53:00;18.70;89.10
12704;DHT22;6416;52.182;7.650;2023-08-07T03:55:26;18.70;89.10
12704;DHT22;6416;52.182;7.650;2023-08-07T03:57:52;18.70;89.80
12704;DHT22;6416;52.182;7.650;2023-08-07T04:00:17;18.70;89.20
12704;DHT22;6416;52.182;7.650;2023-08-07T04:02:43;18.70;89.20
12704;DHT22;6416;52.182;7.650;2023-08-07T04:05:08;18.70;89.40
12704;DHT22;6416;52.182;7.650;2023-08-07T04:07:34;18.70;89.40
12704;DHT22;6416;52.182;7.650;2023-08-07T04:09:59;18.70;89.40
12704;DHT22;6416;52.182;7.650;2023-08-07T04:12:25;18.70;89.40
12704;DHT22;6416;52.182;7.650;2023-08-07T04:14:50;18.70;89.40
12704;DHT22;6416;52.182;7.650;2023-08-07T04:17:16;18.70;89.50
12704;DHT22;6416;52.182;7.650;2023-08-07T04:19:41;18.70;89.50
12704;DHT22;6416;52.182;7.650;2023-08-07T04:22:07;18.70;89.50
12704;DHT22;6416;52.182;7.650;2023-08-07T04:24:32;18.70;89.40
12704;DHT22;6416;52.182;7.650;2023-08-07T04:26:58;18.70;89.40
12704;DHT22;6416;52.182;7.650;2023-08-07T04:29:24;18.60;89.40
12704;DHT22;6416;52.182;7.650;2023-08-07T04:31:50;18.70;89.50
12704;DHT22;6416;52.182;7.650;2023-08-07T04:34:15;18.60;89.40
12704;DHT22;6416;52.182;7.650;2023-08-07T04:36:41;18.70;89.50
12704;DHT22;6416;52.182;7.650;2023-08-07T04:39:06;18.70;89.40
12704;DHT22;6416;52.182;7.650;2023-08-07T04:41:31;18.70;89.50
12704;DHT22;6416;52.182;7.650;2023-08-07T04:43:57;18.70;89.50
12704;DHT22;6416;52.182;7.650;2023-08-07T04:46:22;18.70;89.60
12704;DHT22;6416;52.182;7.650;2023-08-07T04:48:48;18.70;89.70
12704;DHT22;6416;52.182;7.650;2023-08-07T04:51:13;18.70;89.80
12704;DHT22;6416;52.182;7.650;2023-08-07T04:53:39;18.70;89.80
12704;DHT22;6416;52.182;7.650;2023-08-07T04:56:04;18.70;89.90
12704;DHT22;6416;52.182;7.650;2023-08-07T04:58:30;18.70;89.90
12704;DHT22;6416;52.182;7.650;2023-08-07T05:00:56;18.80;90.00
12704;DHT22;6416;52.182;7.650;2023-08-07T05:03:21;18.70;89.80
12704;DHT22;6416;52.182;7.650;2023-08-07T05:05:47;18.70;89.80
12704;DHT22;6416;52.182;7.650;2023-08-07T05:08:12;18.70;89.90
12704;DHT22;6416;52.182;7.650;2023-08-07T05:10:38;18.70;89.90
12704;DHT22;6416;52.182;7.650;2023-08-07T05:13:03;18.80;90.00
12704;DHT22;6416;52.182;7.650;2023-08-07T05:15:29;18.80;90.00
12704;DHT22;6416;52.182;7.650;2023-08-07T05:17:54;18.80;90.00
12704;DHT22;6416;52.182;7.650;2023-08-07T05:20:20;18.80;90.00
12704;DHT22;6416;52.182;7.650;2023-08-07T05:22:45;18.80;90.00
12704;DHT22;6416;52.182;7.650;2023-08-07T05:25:11;18.80;90.00
12704;DHT22;6416;52.182;7.650;2023-08-07T05:27:36;18.90;90.00
12704;DHT22;6416;52.182;7.650;2023-08-07T05:30:02;18.90;90.00
12704;DHT22;6416;52.182;7.650;2023-08-07T05:32:28;18.90;90.00
12704;DHT22;6416;52.182;7.650;2023-08-07T05:34:54;18.90;90.00
12704;DHT22;6416;52.182;7.650;2023-08-07T05:37:19;19.00;90.10
12704;DHT22;6416;52.182;7.650;2023-08-07T05:39:45;19.00;90.10
12704;DHT22;6416;52.182;7.650;2023-08-07T05:42:10;19.00;90.10
12704;DHT22;6416;52.182;7.650;2023-08-07T05:44:36;19.10;90.20
12704;DHT22;6416;52.182;7.650;2023-08-07T05:47:01;19.10;90.10
12704;DHT22;6416;52.182;7.650;2023-08-07T05:49:27;19.10;90.10
12704;DHT22;6416;52.182;7.650;2023-08-07T05:51:53;19.10;90.10
12704;DHT22;6416;52.182;7.650;2023-08-07T05:54:18;19.20;90.10
12704;DHT22;6416;52.182;7.650;2023-08-07T05:56:44;19.20;90.20
12704;DHT22;6416;52.182;7.650;2023-08-07T05:59:09;19.20;90.10
12704;DHT22;6416;52.182;7.650;2023-08-07T06:01:35;19.30;90.10
12704;DHT22;6416;52.182;7.650;2023-08-07T06:04:00;19.30;90.00
12704;DHT22;6416;52.182;7.650;2023-08-07T06:06:26;19.30;90.00
12704;DHT22;6416;52.182;7.650;2023-08-07T06:08:51;19.40;90.00
12704;DHT22;6416;52.182;7.650;2023-08-07T06:11:17;19.40;90.00
12704;DHT22;6416;52.182;7.650;2023-08-07T06:13:43;19.40;89.90
12704;DHT22;6416;52.182;7.650;2023-08-07T06:16:08;19.40;89.90
12704;DHT22;6416;52.182;7.650;2023-08-07T06:18:34;19.50;89.80
12704;DHT22;6416;52.182;7.650;2023-08-07T06:20:59;19.50;89.70
12704;DHT22;6416;52.182;7.650;2023-08-07T06:23:25;19.50;89.70
12704;DHT22;6416;52.182;7.650;2023-08-07T06:25:50;19.50;89.60
12704;DHT22;6416;52.182;7.650;2023-08-07T06:28:16;19.50;89.40
12704;DHT22;6416;52.182;7.650;2023-08-07T06:30:41;19.50;89.40
12704;DHT22;6416;52.182;7.650;2023-08-07T06:33:07;19.50;89.50
12704;DHT22;6416;52.182;7.650;2023-08-07T06:35:40;19.50;89.50
12704;DHT22;6416;52.182;7.650;2023-08-07T06:38:05;19.60;89.10
12704;DHT22;6416;52.182;7.650;2023-08-07T06:40:31;19.60;89.60
12704;DHT22;6416;52.182;7.650;2023-08-07T06:42:57;19.60;89.80
12704;DHT22;6416;52.182;7.650;2023-08-07T06:45:22;19.60;90.00
12704;DHT22;6416;52.182;7.650;2023-08-07T06:47:48;19.60;90.10
12704;DHT22;6416;52.182;7.650;2023-08-07T06:50:13;19.70;90.20
12704;DHT22;6416;52.182;7.650;2023-08-07T06:52:39;19.70;90.20
12704;DHT22;6416;52.182;7.650;2023-08-07T06:55:05;19.80;90.20
12704;DHT22;6416;52.182;7.650;2023-08-07T06:57:30;19.80;90.10
12704;DHT22;6416;52.182;7.650;2023-08-07T06:59:56;19.80;90.00
12704;DHT22;6416;52.182;7.650;2023-08-07T07:02:21;19.80;89.90
12704;DHT22;6416;52.182;7.650;2023-08-07T07:04:47;19.80;89.80
12704;DHT22;6416;52.182;7.650;2023-08-07T07:07:12;19.80;89.70
12704;DHT22;6416;52.182;7.650;2023-08-07T07:09:38;19.80;89.60
12704;DHT22;6416;52.182;7.650;2023-08-07T07:12:04;19.70;89.70
12704;DHT22;6416;52.182;7.650;2023-08-07T07:14:29;19.70;89.90
12704;DHT22;6416;52.182;7.650;2023-08-07T07:16:54;19.70;90.10
12704;DHT22;6416;52.182;7.650;2023-08-07T07:19:20;19.80;90.20
12704;DHT22;6416;52.182;7.650;2023-08-07T07:21:45;19.80;90.40
12704;DHT22;6416;52.182;7.650;2023-08-07T07:24:11;19.90;90.70
12704;DHT22;6416;52.182;7.650;2023-08-07T07:26:36;19.90;90.90
12704;DHT22;6416;52.182;7.650;2023-08-07T07:29:02;20.10;91.10
12704;DHT22;6416;52.182;7.650;2023-08-07T07:31:28;20.10;91.30
12704;DHT22;6416;52.182;7.650;2023-08-07T07:33:53;20.30;91.70
12704;DHT22;6416;52.182;7.650;2023-08-07T07:36:19;20.40;91.80
12704;DHT22;6416;52.182;7.650;2023-08-07T07:38:47;20.50;91.70
12704;DHT22;6416;52.182;7.650;2023-08-07T07:41:14;20.70;91.50
12704;DHT22;6416;52.182;7.650;2023-08-07T07:43:39;20.80;91.50
12704;DHT22;6416;52.182;7.650;2023-08-07T07:46:05;20.90;91.40
12704;DHT22;6416;52.182;7.650;2023-08-07T07:48:30;21.10;91.20
12704;DHT22;6416;52.182;7.650;2023-08-07T07:51:00;21.10;90.90
12704;DHT22;6416;52.182;7.650;2023-08-07T07:53:26;21.20;90.30
12704;DHT22;6416;52.182;7.650;2023-08-07T07:55:52;21.20;90.00
12704;DHT22;6416;52.182;7.650;2023-08-07T07:58:17;21.10;89.50
12704;DHT22;6416;52.182;7.650;2023-08-07T08:00:43;21.10;89.50
12704;DHT22;6416;52.182;7.650;2023-08-07T08:03:08;21.20;90.00
12704;DHT22;6416;52.182;7.650;2023-08-07T08:05:34;21.20;90.10
12704;DHT22;6416;52.182;7.650;2023-08-07T08:08:00;21.30;90.50
12704;DHT22;6416;52.182;7.650;2023-08-07T08:10:25;21.50;91.50
12704;DHT22;6416;52.182;7.650;2023-08-07T08:12:51;21.80;91.50
12704;DHT22;6416;52.182;7.650;2023-08-07T08:15:16;22.10;91.50
12704;DHT22;6416;52.182;7.650;2023-08-07T08:17:42;22.30;91.10
12704;DHT22;6416;52.182;7.650;2023-08-07T08:20:08;22.50;90.50
12704;DHT22;6416;52.182;7.650;2023-08-07T08:22:33;22.60;89.80
12704;DHT22;6416;52.182;7.650;2023-08-07T08:24:59;22.70;88.90
12704;DHT22;6416;52.182;7.650;2023-08-07T08:27:24;22.80;89.00
12704;DHT22;6416;52.182;7.650;2023-08-07T08:29:50;22.90;88.90
12704;DHT22;6416;52.182;7.650;2023-08-07T08:32:15;23.00;88.20
12704;DHT22;6416;52.182;7.650;2023-08-07T08:34:41;22.90;86.30
12704;DHT22;6416;52.182;7.650;2023-08-07T08:37:06;22.90;85.00
12704;DHT22;6416;52.182;7.650;2023-08-07T08:39:32;22.70;84.00
12704;DHT22;6416;52.182;7.650;2023-08-07T08:41:57;22.60;83.20
12704;DHT22;6416;52.182;7.650;2023-08-07T08:44:25;22.50;83.00
12704;DHT22;6416;52.182;7.650;2023-08-07T08:46:51;22.30;83.10
12704;DHT22;6416;52.182;7.650;2023-08-07T08:49:23;22.30;83.80
12704;DHT22;6416;52.182;7.650;2023-08-07T08:51:53;22.30;84.20
12704;DHT22;6416;52.182;7.650;2023-08-07T08:54:19;22.30;86.10
12704;DHT22;6416;52.182;7.650;2023-08-07T08:56:45;22.50;87.30
12704;DHT22;6416;52.182;7.650;2023-08-07T08:59:11;22.70;87.30
12704;DHT22;6416;52.182;7.650;2023-08-07T09:01:37;22.90;87.50
12704;DHT22;6416;52.182;7.650;2023-08-07T09:04:03;23.10;87.40
12704;DHT22;6416;52.182;7.650;2023-08-07T09:06:31;23.30;87.30
12704;DHT22;6416;52.182;7.650;2023-08-07T09:08:58;23.60;87.00
12704;DHT22;6416;52.182;7.650;2023-08-07T09:11:26;23.80;86.60
12704;DHT22;6416;52.182;7.650;2023-08-07T09:13:54;24.10;87.50
12704;DHT22;6416;52.182;7.650;2023-08-07T09:16:21;24.50;89.40
12704;DHT22;6416;52.182;7.650;2023-08-07T09:18:47;25.00;88.80
12704;DHT22;6416;52.182;7.650;2023-08-07T09:21:13;25.30;87.40
12704;DHT22;6416;52.182;7.650;2023-08-07T09:23:38;25.70;86.00
12704;DHT22;6416;52.182;7.650;2023-08-07T09:26:05;25.90;84.80
12704;DHT22;6416;52.182;7.650;2023-08-07T09:28:31;26.20;84.10
12704;DHT22;6416;52.182;7.650;2023-08-07T09:30:58;26.30;81.70
12704;DHT22;6416;52.182;7.650;2023-08-07T09:33:27;26.40;80.90
12704;DHT22;6416;52.182;7.650;2023-08-07T09:35:57;26.60;81.10
12704;DHT22;6416;52.182;7.650;2023-08-07T09:38:23;26.90;81.00
12704;DHT22;6416;52.182;7.650;2023-08-07T09:40:49;27.10;81.20
12704;DHT22;6416;52.182;7.650;2023-08-07T09:43:21;27.20;78.90
12704;DHT22;6416;52.182;7.650;2023-08-07T09:45:46;27.10;74.30
12704;DHT22;6416;52.182;7.650;2023-08-07T09:48:12;27.10;74.60
12704;DHT22;6416;52.182;7.650;2023-08-07T09:50:38;27.00;74.20
12704;DHT22;6416;52.182;7.650;2023-08-07T09:53:04;26.90;72.70
12704;DHT22;6416;52.182;7.650;2023-08-07T09:55:29;26.70;71.20
12704;DHT22;6416;52.182;7.650;2023-08-07T09:57:55;26.50;69.80
12704;DHT22;6416;52.182;7.650;2023-08-07T10:00:21;26.40;70.40
12704;DHT22;6416;52.182;7.650;2023-08-07T10:02:47;26.40;71.80
12704;DHT22;6416;52.182;7.650;2023-08-07T10:05:13;26.60;74.30
12704;DHT22;6416;52.182;7.650;2023-08-07T10:07:40;27.00;76.00
12704;DHT22;6416;52.182;7.650;2023-08-07T10:10:06;27.40;76.10
12704;DHT22;6416;52.182;7.650;2023-08-07T10:12:32;27.80;76.00
12704;DHT22;6416;52.182;7.650;2023-08-07T10:15:01;28.00;74.30
12704;DHT22;6416;52.182;7.650;2023-08-07T10:17:28;28.20;70.70
12704;DHT22;6416;52.182;7.650;2023-08-07T10:19:54;28.10;69.20
12704;DHT22;6416;52.182;7.650;2023-08-07T10:22:20;27.90;67.10
12704;DHT22;6416;52.182;7.650;2023-08-07T10:24:50;27.70;66.10
12704;DHT22;6416;52.182;7.650;2023-08-07T10:27:19;27.30;65.30
12704;DHT22;6416;52.182;7.650;2023-08-07T10:29:47;26.90;65.00
12704;DHT22;6416;52.182;7.650;2023-08-07T10:32:15;26.50;64.80
12704;DHT22;6416;52.182;7.650;2023-08-07T10:34:49;26.10;64.70
12704;DHT22;6416;52.182;7.650;2023-08-07T10:37:41;26.00;66.90
12704;DHT22;6416;52.182;7.650;2023-08-07T10:40:08;26.00;67.30
12704;DHT22;6416;52.182;7.650;2023-08-07T10:42:55;26.00;68.90
12704;DHT22;6416;52.182;7.650;2023-08-07T10:45:22;26.00;65.60
12704;DHT22;6416;52.182;7.650;2023-08-07T10:47:57;25.90;67.00
12704;DHT22;6416;52.182;7.650;2023-08-07T10:50:33;25.80;65.30
12704;DHT22;6416;52.182;7.650;2023-08-07T10:53:03;25.70;64.50
12704;DHT22;6416;52.182;7.650;2023-08-07T10:55:45;25.60;65.20
12704;DHT22;6416;52.182;7.650;2023-08-07T10:58:32;25.50;63.90
12704;DHT22;6416;52.182;7.650;2023-08-07T11:01:21;25.40;64.80
12704;DHT22;6416;52.182;7.650;2023-08-07T11:03:54;25.50;66.20
12704;DHT22;6416;52.182;7.650;2023-08-07T11:06:30;25.80;69.70
12704;DHT22;6416;52.182;7.650;2023-08-07T11:08:56;26.20;70.70
12704;DHT22;6416;52.182;7.650;2023-08-07T11:11:21;26.70;73.70
12704;DHT22;6416;52.182;7.650;2023-08-07T11:13:47;27.30;74.50
12704;DHT22;6416;52.182;7.650;2023-08-07T11:16:12;27.90;74.40
12704;DHT22;6416;52.182;7.650;2023-08-07T11:18:38;28.50;74.20
12704;DHT22;6416;52.182;7.650;2023-08-07T11:21:04;29.10;73.10
12704;DHT22;6416;52.182;7.650;2023-08-07T11:23:29;29.60;72.10
12704;DHT22;6416;52.182;7.650;2023-08-07T11:25:55;30.10;71.20
12704;DHT22;6416;52.182;7.650;2023-08-07T11:28:21;30.60;69.40
12704;DHT22;6416;52.182;7.650;2023-08-07T11:30:52;31.00;67.90
12704;DHT22;6416;52.182;7.650;2023-08-07T11:33:18;31.30;65.00
12704;DHT22;6416;52.182;7.650;2023-08-07T11:35:44;31.50;66.20
12704;DHT22;6416;52.182;7.650;2023-08-07T11:38:09;31.70;64.10
12704;DHT22;6416;52.182;7.650;2023-08-07T11:40:35;31.70;61.50
12704;DHT22;6416;52.182;7.650;2023-08-07T11:43:01;31.60;59.70
12704;DHT22;6416;52.182;7.650;2023-08-07T11:45:27;31.50;58.70
12704;DHT22;6416;52.182;7.650;2023-08-07T11:47:52;31.40;58.00
12704;DHT22;6416;52.182;7.650;2023-08-07T11:50:18;31.20;57.50
12704;DHT22;6416;52.182;7.650;2023-08-07T11:52:43;31.00;57.10
12704;DHT22;6416;52.182;7.650;2023-08-07T11:55:09;30.70;56.30
12704;DHT22;6416;52.182;7.650;2023-08-07T11:57:37;30.50;56.20
12704;DHT22;6416;52.182;7.650;2023-08-07T12:00:06;30.30;55.60
12704;DHT22;6416;52.182;7.650;2023-08-07T12:02:35;30.10;55.50
12704;DHT22;6416;52.182;7.650;2023-08-07T12:05:03;29.90;55.10
12704;DHT22;6416;52.182;7.650;2023-08-07T12:07:33;29.70;54.80
12704;DHT22;6416;52.182;7.650;2023-08-07T12:09:58;29.50;55.20
12704;DHT22;6416;52.182;7.650;2023-08-07T12:12:25;29.40;55.50
12704;DHT22;6416;52.182;7.650;2023-08-07T12:14:54;29.20;55.50
12704;DHT22;6416;52.182;7.650;2023-08-07T12:17:21;29.20;54.30
12704;DHT22;6416;52.182;7.650;2023-08-07T12:19:47;29.10;54.90
12704;DHT22;6416;52.182;7.650;2023-08-07T12:22:19;29.10;55.70
12704;DHT22;6416;52.182;7.650;2023-08-07T12:24:45;29.10;54.80
12704;DHT22;6416;52.182;7.650;2023-08-07T12:27:11;29.00;55.20
12704;DHT22;6416;52.182;7.650;2023-08-07T12:29:36;29.00;55.10
12704;DHT22;6416;52.182;7.650;2023-08-07T12:32:02;28.90;54.80
12704;DHT22;6416;52.182;7.650;2023-08-07T12:34:27;28.70;54.50
12704;DHT22;6416;52.182;7.650;2023-08-07T12:36:53;28.60;54.10
12704;DHT22;6416;52.182;7.650;2023-08-07T12:39:19;28.40;53.90
12704;DHT22;6416;52.182;7.650;2023-08-07T12:41:45;28.10;54.00
12704;DHT22;6416;52.182;7.650;2023-08-07T12:44:10;27.90;54.40
12704;DHT22;6416;52.182;7.650;2023-08-07T12:46:36;27.60;54.90
12704;DHT22;6416;52.182;7.650;2023-08-07T12:49:01;27.40;55.40
12704;DHT22;6416;52.182;7.650;2023-08-07T12:51:27;27.30;56.00
12704;DHT22;6416;52.182;7.650;2023-08-07T12:53:52;27.20;56.50
12704;DHT22;6416;52.182;7.650;2023-08-07T12:56:18;27.20;57.00
12704;DHT22;6416;52.182;7.650;2023-08-07T12:58:43;27.30;58.00
12704;DHT22;6416;52.182;7.650;2023-08-07T13:01:09;27.50;58.70
12704;DHT22;6416;52.182;7.650;2023-08-07T13:03:34;27.60;58.20
12704;DHT22;6416;52.182;7.650;2023-08-07T13:06:00;27.70;57.60
12704;DHT22;6416;52.182;7.650;2023-08-07T13:08:26;27.90;57.00
12704;DHT22;6416;52.182;7.650;2023-08-07T13:10:51;28.00;56.20
12704;DHT22;6416;52.182;7.650;2023-08-07T13:13:17;28.00;55.20
12704;DHT22;6416;52.182;7.650;2023-08-07T13:15:42;28.00;55.10
12704;DHT22;6416;52.182;7.650;2023-08-07T13:18:08;28.00;54.70
12704;DHT22;6416;52.182;7.650;2023-08-07T13:20:33;27.90;54.80
12704;DHT22;6416;52.182;7.650;2023-08-07T13:22:58;27.90;54.70
12704;DHT22;6416;52.182;7.650;2023-08-07T13:25:24;27.80;54.80
12704;DHT22;6416;52.182;7.650;2023-08-07T13:27:49;27.70;54.70
12704;DHT22;6416;52.182;7.650;2023-08-07T13:30:15;27.60;54.40
12704;DHT22;6416;52.182;7.650;2023-08-07T13:32:40;27.50;54.70
12704;DHT22;6416;52.182;7.650;2023-08-07T13:35:06;27.50;55.10
12704;DHT22;6416;52.182;7.650;2023-08-07T13:37:32;27.40;55.30
12704;DHT22;6416;52.182;7.650;2023-08-07T13:39:57;27.40;55.60
12704;DHT22;6416;52.182;7.650;2023-08-07T13:42:26;27.40;55.40
12704;DHT22;6416;52.182;7.650;2023-08-07T13:44:51;27.40;54.40
12704;DHT22;6416;52.182;7.650;2023-08-07T13:47:17;27.30;54.40
12704;DHT22;6416;52.182;7.650;2023-08-07T13:49:42;27.30;54.60
12704;DHT22;6416;52.182;7.650;2023-08-07T13:52:08;27.30;54.20
12704;DHT22;6416;52.182;7.650;2023-08-07T13:54:33;27.20;53.70
12704;DHT22;6416;52.182;7.650;2023-08-07T13:56:59;27.10;53.40
12704;DHT22;6416;52.182;7.650;2023-08-07T13:59:24;27.00;53.50
12704;DHT22;6416;52.182;7.650;2023-08-07T14:01:50;26.90;53.60
12704;DHT22;6416;52.182;7.650;2023-08-07T14:04:15;26.80;53.60
12704;DHT22;6416;52.182;7.650;2023-08-07T14:06:41;26.80;53.40
12704;DHT22;6416;52.182;7.650;2023-08-07T14:09:06;26.80;53.70
12704;DHT22;6416;52.182;7.650;2023-08-07T14:11:32;26.80;53.60
12704;DHT22;6416;52.182;7.650;2023-08-07T14:13:57;26.80;53.40
12704;DHT22;6416;52.182;7.650;2023-08-07T14:16:23;26.80;53.30
12704;DHT22;6416;52.182;7.650;2023-08-07T14:18:49;26.80;53.40
12704;DHT22;6416;52.182;7.650;2023-08-07T14:21:14;26.80;53.80
12704;DHT22;6416;52.182;7.650;2023-08-07T14:23:40;26.80;53.60
12704;DHT22;6416;52.182;7.650;2023-08-07T14:26:05;26.80;53.50
12704;DHT22;6416;52.182;7.650;2023-08-07T14:28:30;26.80;53.20
12704;DHT22;6416;52.182;7.650;2023-08-07T14:30:59;26.80;53.50
12704;DHT22;6416;52.182;7.650;2023-08-07T14:33:26;26.80;52.90
12704;DHT22;6416;52.182;7.650;2023-08-07T14:35:52;26.70;53.30
12704;DHT22;6416;52.182;7.650;2023-08-07T14:38:18;26.80;53.50
12704;DHT22;6416;52.182;7.650;2023-08-07T14:40:43;26.70;53.20
12704;DHT22;6416;52.182;7.650;2023-08-07T14:43:09;26.70;53.40
12704;DHT22;6416;52.182;7.650;2023-08-07T14:45:34;26.70;53.30
12704;DHT22;6416;52.182;7.650;2023-08-07T14:47:59;26.70;53.00
12704;DHT22;6416;52.182;7.650;2023-08-07T14:50:25;26.60;52.10
12704;DHT22;6416;52.182;7.650;2023-08-07T14:52:50;26.50;51.90
12704;DHT22;6416;52.182;7.650;2023-08-07T14:55:16;26.40;52.00
12704;DHT22;6416;52.182;7.650;2023-08-07T14:57:41;26.30;52.30
12704;DHT22;6416;52.182;7.650;2023-08-07T15:00:07;26.10;52.20
12704;DHT22;6416;52.182;7.650;2023-08-07T15:02:33;26.00;52.50
12704;DHT22;6416;52.182;7.650;2023-08-07T15:04:58;25.80;53.00
12704;DHT22;6416;52.182;7.650;2023-08-07T15:07:24;25.70;53.70
12704;DHT22;6416;52.182;7.650;2023-08-07T15:09:49;25.50;54.10
12704;DHT22;6416;52.182;7.650;2023-08-07T15:12:15;25.30;54.40
12704;DHT22;6416;52.182;7.650;2023-08-07T15:14:40;25.10;54.80
12704;DHT22;6416;52.182;7.650;2023-08-07T15:17:06;24.90;55.30
12704;DHT22;6416;52.182;7.650;2023-08-07T15:19:31;24.70;55.70
12704;DHT22;6416;52.182;7.650;2023-08-07T15:21:57;24.60;56.30
12704;DHT22;6416;52.182;7.650;2023-08-07T15:24:22;24.40;56.70
12704;DHT22;6416;52.182;7.650;2023-08-07T15:26:48;24.30;57.30
12704;DHT22;6416;52.182;7.650;2023-08-07T15:29:13;24.20;57.90
12704;DHT22;6416;52.182;7.650;2023-08-07T15:31:39;24.10;58.10
12704;DHT22;6416;52.182;7.650;2023-08-07T15:34:04;24.00;58.20
12704;DHT22;6416;52.182;7.650;2023-08-07T15:36:30;23.90;58.40
12704;DHT22;6416;52.182;7.650;2023-08-07T15:38:55;23.80;58.50
12704;DHT22;6416;52.182;7.650;2023-08-07T15:41:21;23.70;58.80
12704;DHT22;6416;52.182;7.650;2023-08-07T15:43:47;23.70;59.00